SBI1138 UUDD-UWPP
Flight info
| Callsign | SBI1138 |
|---|---|
| Flight time | 0h 53m |
| Altitude | 35000 |
| Route | TOGMO M56 NERIK |
| Aircraft | A319/M-SDE3FGHIRWY/LB1 |
Departure
| Time | 2026-05-05 18:31 |
|---|---|
| Airport | Domodedovo International Airport (UUDD) |
Arrival
| Time | 2026-05-05 19:24 |
|---|---|
| Airport | Penza Airport (UWPP) |
| Time | Latitude | Longitude | Altitude | Speed | Heading |
|---|---|---|---|---|---|
| 2026-05-05 17:50 | 55.41052 | 37.89487 | 581 ft | 0 kts | 55° |
| 2026-05-05 18:21 | 55.41051 | 37.89484 | 577 ft | 2 kts | 55° |
| 2026-05-05 18:21 | 55.41036 | 37.89446 | 582 ft | 4 kts | 59° |
| 2026-05-05 18:21 | 55.41023 | 37.89405 | 580 ft | 4 kts | 68° |
| 2026-05-05 18:21 | 55.41017 | 37.89361 | 577 ft | 4 kts | 105° |
| 2026-05-05 18:22 | 55.41024 | 37.89340 | 581 ft | 1 kts | 146° |
| 2026-05-05 18:22 | 55.41026 | 37.89338 | 578 ft | 1 kts | 146° |
| 2026-05-05 18:25 | 55.41024 | 37.89340 | 578 ft | 2 kts | 146° |
| 2026-05-05 18:25 | 55.40993 | 37.89377 | 580 ft | 8 kts | 146° |
| 2026-05-05 18:25 | 55.40933 | 37.89447 | 573 ft | 13 kts | 146° |
| 2026-05-05 18:26 | 55.40873 | 37.89516 | 574 ft | 9 kts | 147° |
| 2026-05-05 18:26 | 55.40810 | 37.89584 | 569 ft | 11 kts | 154° |
| 2026-05-05 18:26 | 55.40739 | 37.89535 | 571 ft | 14 kts | 234° |
| 2026-05-05 18:26 | 55.40689 | 37.89408 | 571 ft | 11 kts | 236° |
| 2026-05-05 18:27 | 55.40615 | 37.89377 | 570 ft | 14 kts | 152° |
| 2026-05-05 18:27 | 55.40524 | 37.89484 | 568 ft | 17 kts | 145° |
| 2026-05-05 18:27 | 55.40424 | 37.89603 | 565 ft | 17 kts | 146° |
| 2026-05-05 18:27 | 55.40330 | 37.89716 | 560 ft | 17 kts | 145° |
| 2026-05-05 18:28 | 55.40142 | 37.89943 | 560 ft | 15 kts | 146° |
| 2026-05-05 18:28 | 55.40048 | 37.90055 | 557 ft | 15 kts | 145° |
| 2026-05-05 18:28 | 55.39967 | 37.90154 | 552 ft | 15 kts | 145° |
| 2026-05-05 18:29 | 55.39881 | 37.90257 | 550 ft | 14 kts | 146° |
| 2026-05-05 18:29 | 55.39794 | 37.90363 | 548 ft | 14 kts | 146° |
| 2026-05-05 18:29 | 55.39714 | 37.90457 | 546 ft | 13 kts | 146° |
| 2026-05-05 18:29 | 55.39646 | 37.90536 | 545 ft | 11 kts | 153° |
| 2026-05-05 18:30 | 55.39579 | 37.90479 | 544 ft | 12 kts | 235° |
| 2026-05-05 18:30 | 55.39542 | 37.90365 | 543 ft | 11 kts | 251° |
| 2026-05-05 18:30 | 55.39581 | 37.90253 | 543 ft | 12 kts | 325° |
| 2026-05-05 18:30 | 55.39710 | 37.90098 | 549 ft | 53 kts | 326° |
| 2026-05-05 18:31 | 55.40229 | 37.89471 | 560 ft | 125 kts | 326° |
| 2026-05-05 18:31 | 55.41083 | 37.88443 | 718 ft | 164 kts | 325° |
| 2026-05-05 18:31 | 55.42007 | 37.87332 | 1445 ft | 159 kts | 324° |
| 2026-05-05 18:31 | 55.42808 | 37.86001 | 2149 ft | 157 kts | 311° |
| 2026-05-05 18:32 | 55.43505 | 37.84539 | 2829 ft | 157 kts | 308° |
| 2026-05-05 18:32 | 55.44209 | 37.83068 | 3467 ft | 156 kts | 309° |
| 2026-05-05 18:32 | 55.44912 | 37.81618 | 4069 ft | 159 kts | 307° |
| 2026-05-05 18:32 | 55.45666 | 37.80066 | 4503 ft | 173 kts | 308° |
| 2026-05-05 18:33 | 55.46282 | 37.78202 | 4907 ft | 184 kts | 277° |
| 2026-05-05 18:33 | 55.45996 | 37.75971 | 5237 ft | 203 kts | 237° |
| 2026-05-05 18:33 | 55.45117 | 37.73976 | 5988 ft | 205 kts | 234° |
| 2026-05-05 18:33 | 55.44566 | 37.72628 | 6573 ft | 203 kts | 236° |
| 2026-05-05 18:34 | 55.44509 | 37.72484 | 6642 ft | 202 kts | 236° |
| 2026-05-05 18:34 | 55.43769 | 37.70633 | 7359 ft | 204 kts | 236° |
| 2026-05-05 18:34 | 55.42948 | 37.68590 | 8216 ft | 205 kts | 233° |
| 2026-05-05 18:34 | 55.41772 | 37.67147 | 8989 ft | 215 kts | 199° |
| 2026-05-05 18:35 | 55.40250 | 37.67270 | 9792 ft | 232 kts | 167° |
| 2026-05-05 18:35 | 55.38800 | 37.68674 | 10468 ft | 246 kts | 150° |
| 2026-05-05 18:35 | 55.37449 | 37.70473 | 11292 ft | 246 kts | 148° |
| 2026-05-05 18:35 | 55.36101 | 37.72353 | 11939 ft | 254 kts | 147° |
| 2026-05-05 18:36 | 55.34697 | 37.74278 | 12682 ft | 258 kts | 147° |
| 2026-05-05 18:36 | 55.33251 | 37.76187 | 13456 ft | 262 kts | 148° |
| 2026-05-05 18:36 | 55.31770 | 37.78090 | 14172 ft | 265 kts | 148° |
| 2026-05-05 18:36 | 55.30261 | 37.79985 | 14885 ft | 268 kts | 149° |
| 2026-05-05 18:37 | 55.28729 | 37.81875 | 15595 ft | 272 kts | 149° |
| 2026-05-05 18:37 | 55.27036 | 37.83613 | 15841 ft | 291 kts | 162° |
| 2026-05-05 18:37 | 55.25035 | 37.84651 | 16067 ft | 311 kts | 170° |
| 2026-05-05 18:37 | 55.22894 | 37.85587 | 16596 ft | 321 kts | 170° |
| 2026-05-05 18:38 | 55.20711 | 37.86543 | 17302 ft | 326 kts | 169° |
| 2026-05-05 18:38 | 55.18500 | 37.87515 | 18022 ft | 329 kts | 169° |
| 2026-05-05 18:38 | 55.16268 | 37.88501 | 18674 ft | 333 kts | 169° |
| 2026-05-05 18:38 | 55.14006 | 37.89506 | 19305 ft | 337 kts | 169° |
| 2026-05-05 18:39 | 55.11725 | 37.90516 | 19937 ft | 340 kts | 171° |
| 2026-05-05 18:39 | 55.09389 | 37.90874 | 20534 ft | 337 kts | 188° |
| 2026-05-05 18:39 | 55.07082 | 37.90410 | 21157 ft | 339 kts | 191° |
| 2026-05-05 18:39 | 55.04732 | 37.89887 | 21788 ft | 342 kts | 191° |
| 2026-05-05 18:40 | 55.02341 | 37.89651 | 22401 ft | 351 kts | 177° |
| 2026-05-05 18:40 | 54.99990 | 37.90968 | 22958 ft | 365 kts | 153° |
| 2026-05-05 18:40 | 54.98030 | 37.93953 | 23103 ft | 388 kts | 130° |
| 2026-05-05 18:40 | 54.96423 | 37.97821 | 23445 ft | 399 kts | 126° |
| 2026-05-05 18:41 | 54.94879 | 38.01878 | 23894 ft | 404 kts | 124° |
| 2026-05-05 18:41 | 54.93358 | 38.06013 | 24406 ft | 407 kts | 124° |
| 2026-05-05 18:41 | 54.91823 | 38.10184 | 24923 ft | 410 kts | 124° |
| 2026-05-05 18:41 | 54.90280 | 38.14365 | 25434 ft | 413 kts | 122° |
| 2026-05-05 18:42 | 54.89081 | 38.18938 | 25916 ft | 418 kts | 112° |
| 2026-05-05 18:42 | 54.88014 | 38.23649 | 26409 ft | 421 kts | 112° |
| 2026-05-05 18:42 | 54.86939 | 38.28390 | 26896 ft | 423 kts | 112° |
| 2026-05-05 18:42 | 54.85852 | 38.33162 | 27375 ft | 426 kts | 112° |
| 2026-05-05 18:43 | 54.84659 | 38.37881 | 27827 ft | 428 kts | 120° |
| 2026-05-05 18:43 | 54.83207 | 38.42399 | 28303 ft | 430 kts | 121° |
| 2026-05-05 18:43 | 54.81760 | 38.46874 | 28758 ft | 432 kts | 121° |
| 2026-05-05 18:43 | 54.80279 | 38.51433 | 29199 ft | 435 kts | 121° |
| 2026-05-05 18:44 | 54.78788 | 38.56010 | 29652 ft | 438 kts | 121° |
| 2026-05-05 18:44 | 54.77245 | 38.60576 | 30061 ft | 440 kts | 126° |
| 2026-05-05 18:44 | 54.75219 | 38.64530 | 30396 ft | 440 kts | 141° |
| 2026-05-05 18:44 | 54.72689 | 38.67555 | 30528 ft | 446 kts | 151° |
| 2026-05-05 18:45 | 54.70010 | 38.70345 | 30654 ft | 453 kts | 151° |
| 2026-05-05 18:45 | 54.67286 | 38.73151 | 30890 ft | 458 kts | 151° |
| 2026-05-05 18:45 | 54.64540 | 38.75967 | 31192 ft | 460 kts | 151° |
| 2026-05-05 18:45 | 54.61782 | 38.78799 | 31515 ft | 462 kts | 151° |
| 2026-05-05 18:46 | 54.59021 | 38.81650 | 31962 ft | 461 kts | 151° |
| 2026-05-05 18:46 | 54.56284 | 38.84493 | 32459 ft | 459 kts | 151° |
| 2026-05-05 18:46 | 54.53557 | 38.87333 | 32946 ft | 457 kts | 151° |
| 2026-05-05 18:46 | 54.50838 | 38.90162 | 33439 ft | 455 kts | 151° |
| 2026-05-05 18:47 | 54.48168 | 38.92926 | 33920 ft | 453 kts | 151° |
| 2026-05-05 18:47 | 54.45469 | 38.95706 | 34336 ft | 452 kts | 151° |
| 2026-05-05 18:47 | 54.42801 | 38.98547 | 34697 ft | 453 kts | 147° |
| 2026-05-05 18:47 | 54.40378 | 39.02033 | 34836 ft | 456 kts | 136° |
| 2026-05-05 18:48 | 54.38379 | 39.06206 | 34874 ft | 452 kts | 125° |
| 2026-05-05 18:48 | 54.36847 | 39.10909 | 34865 ft | 452 kts | 115° |
| 2026-05-05 18:48 | 54.34468 | 39.20876 | 34868 ft | 451 kts | 114° |
| 2026-05-05 18:49 | 54.32057 | 39.30803 | 34873 ft | 451 kts | 114° |
| 2026-05-05 18:49 | 54.29638 | 39.40709 | 34873 ft | 451 kts | 114° |
| 2026-05-05 18:50 | 54.27239 | 39.50536 | 34869 ft | 451 kts | 114° |
| 2026-05-05 18:50 | 54.24820 | 39.60421 | 34869 ft | 450 kts | 114° |
| 2026-05-05 18:51 | 54.22395 | 39.70298 | 34871 ft | 451 kts | 114° |
| 2026-05-05 18:51 | 54.19959 | 39.80161 | 34874 ft | 450 kts | 114° |
| 2026-05-05 18:52 | 54.17515 | 39.90003 | 34875 ft | 450 kts | 114° |
| 2026-05-05 18:52 | 54.15071 | 39.99831 | 34878 ft | 450 kts | 114° |
| 2026-05-05 18:53 | 54.12612 | 40.09636 | 34882 ft | 449 kts | 114° |
| 2026-05-05 18:53 | 54.10617 | 40.19646 | 34883 ft | 450 kts | 107° |
| 2026-05-05 18:54 | 54.08854 | 40.29863 | 34888 ft | 449 kts | 107° |
| 2026-05-05 18:54 | 54.07072 | 40.40055 | 34884 ft | 449 kts | 107° |
| 2026-05-05 18:55 | 54.05292 | 40.50232 | 34884 ft | 449 kts | 107° |
| 2026-05-05 18:55 | 54.03502 | 40.60398 | 34884 ft | 448 kts | 107° |
| 2026-05-05 18:56 | 54.01702 | 40.70552 | 34887 ft | 448 kts | 107° |
| 2026-05-05 18:56 | 53.99895 | 40.80697 | 34888 ft | 448 kts | 108° |
| 2026-05-05 18:57 | 53.98086 | 40.90753 | 34886 ft | 448 kts | 108° |
| 2026-05-05 18:57 | 53.96261 | 41.00865 | 34890 ft | 448 kts | 108° |
| 2026-05-05 18:58 | 53.94486 | 41.10986 | 34892 ft | 447 kts | 106° |
| 2026-05-05 18:58 | 53.92847 | 41.21171 | 34895 ft | 447 kts | 105° |
| 2026-05-05 18:59 | 53.91224 | 41.31360 | 34898 ft | 447 kts | 106° |
| 2026-05-05 18:59 | 53.89566 | 41.41441 | 34899 ft | 447 kts | 106° |
| 2026-05-05 19:00 | 53.87863 | 41.51563 | 34897 ft | 446 kts | 106° |
| 2026-05-05 19:00 | 53.86154 | 41.61678 | 34900 ft | 446 kts | 106° |
| 2026-05-05 19:01 | 53.84447 | 41.71776 | 34902 ft | 446 kts | 106° |
| 2026-05-05 19:01 | 53.82735 | 41.81877 | 34904 ft | 446 kts | 107° |
| 2026-05-05 19:02 | 53.81004 | 41.91954 | 34905 ft | 446 kts | 107° |
| 2026-05-05 19:02 | 53.79262 | 42.02028 | 34806 ft | 447 kts | 107° |
| 2026-05-05 19:03 | 53.78400 | 42.06990 | 34568 ft | 446 kts | 107° |
| 2026-05-05 19:03 | 53.77526 | 42.12014 | 34329 ft | 445 kts | 107° |
| 2026-05-05 19:03 | 53.76653 | 42.17030 | 34094 ft | 445 kts | 107° |
| 2026-05-05 19:03 | 53.75779 | 42.22047 | 33796 ft | 444 kts | 107° |
| 2026-05-05 19:04 | 53.74910 | 42.27024 | 33205 ft | 440 kts | 107° |
| 2026-05-05 19:04 | 53.74043 | 42.31963 | 32611 ft | 437 kts | 107° |
| 2026-05-05 19:04 | 53.73178 | 42.36864 | 32044 ft | 434 kts | 107° |
| 2026-05-05 19:04 | 53.72318 | 42.41728 | 31470 ft | 431 kts | 107° |
| 2026-05-05 19:05 | 53.71465 | 42.46566 | 30911 ft | 428 kts | 108° |
| 2026-05-05 19:05 | 53.70616 | 42.51372 | 30355 ft | 426 kts | 108° |
| 2026-05-05 19:05 | 53.69767 | 42.56146 | 29774 ft | 424 kts | 108° |
| 2026-05-05 19:05 | 53.68912 | 42.60895 | 29203 ft | 420 kts | 108° |
| 2026-05-05 19:06 | 53.68078 | 42.65520 | 28687 ft | 416 kts | 108° |
| 2026-05-05 19:06 | 53.67250 | 42.70170 | 28150 ft | 412 kts | 107° |
| 2026-05-05 19:06 | 53.66485 | 42.74804 | 27633 ft | 409 kts | 106° |
| 2026-05-05 19:06 | 53.65769 | 42.79429 | 27120 ft | 406 kts | 105° |
| 2026-05-05 19:07 | 53.65076 | 42.84028 | 26626 ft | 403 kts | 105° |
| 2026-05-05 19:07 | 53.64620 | 42.87056 | 26303 ft | 402 kts | 105° |
| 2026-05-05 19:07 | 53.63695 | 42.93137 | 25667 ft | 399 kts | 105° |
| 2026-05-05 19:07 | 53.62994 | 42.97650 | 25203 ft | 397 kts | 106° |
| 2026-05-05 19:08 | 53.62284 | 43.02138 | 24744 ft | 395 kts | 106° |
| 2026-05-05 19:08 | 53.61572 | 43.06593 | 24286 ft | 393 kts | 106° |
| 2026-05-05 19:08 | 53.60859 | 43.11025 | 23824 ft | 391 kts | 106° |
| 2026-05-05 19:08 | 53.60146 | 43.15439 | 23337 ft | 390 kts | 106° |
| 2026-05-05 19:09 | 53.59438 | 43.19828 | 22845 ft | 387 kts | 106° |
| 2026-05-05 19:09 | 53.58738 | 43.24171 | 22383 ft | 383 kts | 106° |
| 2026-05-05 19:09 | 53.58053 | 43.28423 | 21922 ft | 380 kts | 106° |
| 2026-05-05 19:09 | 53.57363 | 43.32698 | 21457 ft | 377 kts | 106° |
| 2026-05-05 19:10 | 53.56673 | 43.36941 | 20986 ft | 375 kts | 106° |
| 2026-05-05 19:10 | 53.55985 | 43.41157 | 20525 ft | 372 kts | 106° |
| 2026-05-05 19:10 | 53.55301 | 43.45342 | 20044 ft | 370 kts | 106° |
| 2026-05-05 19:10 | 53.54622 | 43.49508 | 19571 ft | 369 kts | 105° |
| 2026-05-05 19:11 | 53.53945 | 43.53655 | 19103 ft | 367 kts | 105° |
| 2026-05-05 19:11 | 53.53268 | 43.57782 | 18638 ft | 365 kts | 105° |
| 2026-05-05 19:11 | 53.52592 | 43.61891 | 18166 ft | 364 kts | 105° |
| 2026-05-05 19:11 | 53.51918 | 43.65981 | 17669 ft | 362 kts | 105° |
| 2026-05-05 19:12 | 53.51474 | 43.68674 | 17372 ft | 360 kts | 105° |
| 2026-05-05 19:12 | 53.50809 | 43.72702 | 16914 ft | 357 kts | 105° |
| 2026-05-05 19:12 | 53.49929 | 43.77994 | 16330 ft | 353 kts | 106° |
| 2026-05-05 19:12 | 53.49267 | 43.81946 | 15895 ft | 351 kts | 106° |
| 2026-05-05 19:13 | 53.48606 | 43.85875 | 15458 ft | 349 kts | 106° |
| 2026-05-05 19:13 | 53.47950 | 43.89784 | 15024 ft | 347 kts | 106° |
| 2026-05-05 19:13 | 53.47300 | 43.93671 | 14591 ft | 345 kts | 106° |
| 2026-05-05 19:13 | 53.46871 | 43.96233 | 14299 ft | 344 kts | 106° |
| 2026-05-05 19:14 | 53.46226 | 44.00092 | 13869 ft | 343 kts | 106° |
| 2026-05-05 19:14 | 53.45582 | 44.03934 | 13402 ft | 341 kts | 105° |
| 2026-05-05 19:14 | 53.44940 | 44.07749 | 12951 ft | 338 kts | 105° |
| 2026-05-05 19:14 | 53.44301 | 44.11528 | 12516 ft | 335 kts | 105° |
| 2026-05-05 19:15 | 53.43665 | 44.15273 | 12080 ft | 332 kts | 105° |
| 2026-05-05 19:15 | 53.43032 | 44.18984 | 11637 ft | 330 kts | 105° |
| 2026-05-05 19:15 | 53.42401 | 44.22667 | 11203 ft | 327 kts | 105° |
| 2026-05-05 19:15 | 53.41776 | 44.26316 | 10763 ft | 325 kts | 105° |
| 2026-05-05 19:16 | 53.41152 | 44.29943 | 10324 ft | 323 kts | 105° |
| 2026-05-05 19:16 | 53.40539 | 44.33513 | 10104 ft | 313 kts | 105° |
| 2026-05-05 19:16 | 53.39948 | 44.36952 | 9977 ft | 301 kts | 105° |
| 2026-05-05 19:16 | 53.39374 | 44.40276 | 9746 ft | 294 kts | 105° |
| 2026-05-05 19:17 | 53.38803 | 44.43583 | 9275 ft | 294 kts | 105° |
| 2026-05-05 19:17 | 53.38239 | 44.46837 | 8814 ft | 289 kts | 105° |
| 2026-05-05 19:17 | 53.37680 | 44.50066 | 8147 ft | 288 kts | 105° |
| 2026-05-05 19:17 | 53.36985 | 44.53149 | 7499 ft | 287 kts | 118° |
| 2026-05-05 19:18 | 53.35825 | 44.55838 | 6865 ft | 285 kts | 134° |
| 2026-05-05 19:18 | 53.34289 | 44.57918 | 6180 ft | 285 kts | 146° |
| 2026-05-05 19:18 | 53.32657 | 44.59763 | 5573 ft | 281 kts | 146° |
| 2026-05-05 19:18 | 53.31039 | 44.61602 | 5057 ft | 280 kts | 146° |
| 2026-05-05 19:19 | 53.29441 | 44.63425 | 4664 ft | 277 kts | 146° |
| 2026-05-05 19:19 | 53.27873 | 44.65217 | 4427 ft | 268 kts | 147° |
| 2026-05-05 19:19 | 53.26374 | 44.66928 | 4292 ft | 254 kts | 147° |
| 2026-05-05 19:19 | 53.24948 | 44.68548 | 4187 ft | 242 kts | 147° |
| 2026-05-05 19:20 | 53.23590 | 44.70084 | 4074 ft | 230 kts | 147° |
| 2026-05-05 19:20 | 53.22297 | 44.71548 | 3975 ft | 220 kts | 147° |
| 2026-05-05 19:20 | 53.21037 | 44.72976 | 3886 ft | 218 kts | 147° |
| 2026-05-05 19:20 | 53.19783 | 44.74398 | 3825 ft | 218 kts | 146° |
| 2026-05-05 19:21 | 53.18700 | 44.76177 | 3538 ft | 225 kts | 123° |
| 2026-05-05 19:21 | 53.17989 | 44.78523 | 3172 ft | 227 kts | 116° |
| 2026-05-05 19:21 | 53.17301 | 44.80885 | 2884 ft | 226 kts | 117° |
| 2026-05-05 19:21 | 53.16615 | 44.83230 | 2615 ft | 224 kts | 117° |
| 2026-05-05 19:22 | 53.15942 | 44.85531 | 2349 ft | 216 kts | 117° |
| 2026-05-05 19:22 | 53.15313 | 44.87682 | 2136 ft | 203 kts | 118° |
| 2026-05-05 19:22 | 53.14711 | 44.89735 | 1881 ft | 191 kts | 118° |
| 2026-05-05 19:22 | 53.14150 | 44.91648 | 1669 ft | 177 kts | 119° |
| 2026-05-05 19:23 | 53.13634 | 44.93408 | 1471 ft | 160 kts | 118° |
| 2026-05-05 19:23 | 53.13171 | 44.94984 | 1283 ft | 145 kts | 118° |
| 2026-05-05 19:23 | 53.12742 | 44.96444 | 1119 ft | 137 kts | 117° |
| 2026-05-05 19:23 | 53.12358 | 44.97870 | 952 ft | 134 kts | 116° |
| 2026-05-05 19:24 | 53.11937 | 44.99231 | 785 ft | 131 kts | 119° |
| 2026-05-05 19:24 | 53.11539 | 45.00587 | 639 ft | 130 kts | 117° |
| 2026-05-05 19:24 | 53.11156 | 45.01853 | 597 ft | 97 kts | 118° |
| 2026-05-05 19:24 | 53.10968 | 45.02469 | 602 ft | 43 kts | 116° |
| 2026-05-05 19:25 | 53.10837 | 45.02916 | 602 ft | 44 kts | 116° |
| 2026-05-05 19:25 | 53.10727 | 45.03286 | 603 ft | 20 kts | 116° |
| 2026-05-05 19:25 | 53.10684 | 45.03438 | 602 ft | 13 kts | 105° |
| 2026-05-05 19:25 | 53.10739 | 45.03539 | 598 ft | 9 kts | 11° |
| 2026-05-05 19:26 | 53.10811 | 45.03532 | 597 ft | 7 kts | 355° |
| 2026-05-05 19:26 | 53.10815 | 45.03531 | 597 ft | 0 kts | 355° |
| 2026-05-05 19:26 | 53.10822 | 45.03530 | 597 ft | 2 kts | 355° |
| 2026-05-05 19:26 | 53.10843 | 45.03527 | 597 ft | 4 kts | 355° |
| 2026-05-05 19:27 | 53.10878 | 45.03517 | 597 ft | 6 kts | 342° |
| 2026-05-05 19:27 | 53.10919 | 45.03468 | 596 ft | 8 kts | 319° |
| 2026-05-05 19:27 | 53.10969 | 45.03393 | 596 ft | 11 kts | 318° |
| 2026-05-05 19:27 | 53.11034 | 45.03298 | 596 ft | 14 kts | 319° |
| 2026-05-05 19:28 | 53.11112 | 45.03184 | 596 ft | 16 kts | 319° |
| 2026-05-05 19:28 | 53.11185 | 45.03078 | 596 ft | 14 kts | 319° |
| 2026-05-05 19:28 | 53.11262 | 45.02963 | 596 ft | 16 kts | 318° |
| 2026-05-05 19:28 | 53.11350 | 45.02835 | 596 ft | 14 kts | 319° |
| 2026-05-05 19:29 | 53.11422 | 45.02731 | 596 ft | 14 kts | 319° |
| 2026-05-05 19:29 | 53.11488 | 45.02634 | 596 ft | 11 kts | 318° |
| 2026-05-05 19:29 | 53.11547 | 45.02545 | 596 ft | 11 kts | 319° |
| 2026-05-05 19:29 | 53.11610 | 45.02524 | 596 ft | 7 kts | 347° |
| 2026-05-05 19:30 | 53.11627 | 45.02470 | 597 ft | 5 kts | 274° |
| 2026-05-05 19:30 | 53.11627 | 45.02428 | 596 ft | 2 kts | 269° |
| 2026-05-05 19:30 | 53.11627 | 45.02421 | 596 ft | 0 kts | 270° |